createdAt,value
2024-01-16T00:02:25.924Z,3.60
2024-01-16T00:04:54.042Z,3.30
2024-01-16T00:07:22.279Z,3.30
2024-01-16T00:09:53.815Z,3.20
2024-01-16T00:12:22.365Z,3.40
2024-01-16T00:14:50.554Z,3.80
2024-01-16T00:17:18.936Z,3.60
2024-01-16T00:19:47.031Z,3.80
2024-01-16T00:22:15.267Z,3.70
2024-01-16T00:24:43.381Z,3.60
2024-01-16T00:27:11.451Z,3.90
2024-01-16T00:29:40.224Z,3.50
2024-01-16T00:32:08.394Z,3.70
2024-01-16T00:34:37.249Z,3.40
2024-01-16T00:37:06.699Z,3.60
2024-01-16T00:39:34.833Z,3.90
2024-01-16T00:42:07.114Z,3.70
2024-01-16T00:44:36.242Z,3.70
2024-01-16T00:47:06.823Z,3.70
2024-01-16T00:49:36.866Z,3.50
2024-01-16T00:52:05.802Z,3.90
2024-01-16T00:54:34.154Z,4.90
2024-01-16T00:57:03.144Z,4.40
2024-01-16T00:59:31.344Z,4.20
2024-01-16T01:01:59.711Z,5.40
2024-01-16T01:04:28.096Z,5.30
2024-01-16T01:06:56.195Z,4.80
2024-01-16T01:09:24.280Z,5.40
2024-01-16T01:11:52.517Z,5.40
2024-01-16T01:14:20.707Z,6.00
2024-01-16T01:16:48.800Z,6.50
2024-01-16T01:19:16.966Z,5.60
2024-01-16T01:21:45.402Z,6.20
2024-01-16T01:24:13.427Z,5.60
2024-01-16T01:26:44.593Z,6.00
2024-01-16T01:29:12.758Z,5.80
2024-01-16T01:31:40.773Z,6.10
2024-01-16T01:34:09.029Z,6.50
2024-01-16T01:36:37.363Z,6.20
2024-01-16T01:39:05.623Z,6.10
2024-01-16T01:41:33.681Z,5.70
2024-01-16T01:44:01.784Z,5.70
2024-01-16T01:46:32.619Z,6.00
2024-01-16T01:49:01.144Z,5.60
2024-01-16T01:51:30.062Z,5.50
2024-01-16T01:53:59.909Z,5.30
2024-01-16T01:56:28.906Z,5.30
2024-01-16T01:58:59.911Z,5.70
2024-01-16T02:01:30.635Z,4.90
2024-01-16T02:04:00.352Z,5.30
2024-01-16T02:06:29.436Z,4.50
2024-01-16T02:08:58.096Z,4.10
2024-01-16T02:11:26.927Z,4.10
2024-01-16T02:13:55.118Z,3.90
2024-01-16T02:16:24.383Z,4.40
2024-01-16T02:18:53.612Z,4.50
2024-01-16T02:21:24.183Z,4.20
2024-01-16T02:23:52.971Z,4.70
2024-01-16T02:26:21.861Z,4.40
2024-01-16T02:28:50.264Z,4.80
2024-01-16T02:31:19.232Z,4.90
2024-01-16T02:33:47.527Z,4.60
2024-01-16T02:36:15.739Z,5.70
2024-01-16T02:38:46.060Z,5.90
2024-01-16T02:41:17.185Z,5.50
2024-01-16T02:43:45.938Z,4.80
2024-01-16T02:46:15.698Z,5.50
2024-01-16T02:48:44.087Z,5.10
2024-01-16T02:51:12.586Z,5.30
2024-01-16T02:53:40.974Z,5.50
2024-01-16T02:56:09.979Z,5.10
2024-01-16T02:58:38.104Z,5.10
2024-01-16T03:01:06.545Z,5.80
2024-01-16T03:03:35.085Z,5.40
2024-01-16T03:06:03.431Z,5.60
2024-01-16T03:08:31.739Z,5.10
2024-01-16T03:10:59.748Z,4.90
2024-01-16T03:13:28.738Z,5.70
2024-01-16T03:15:56.935Z,5.60
2024-01-16T03:18:25.097Z,5.50
2024-01-16T03:20:53.400Z,5.80
2024-01-16T03:23:21.516Z,5.70
2024-01-16T03:25:49.556Z,5.70
2024-01-16T03:28:17.578Z,6.20
2024-01-16T03:30:45.850Z,6.00
2024-01-16T03:33:14.290Z,6.30
2024-01-16T03:35:43.134Z,6.40
2024-01-16T03:38:11.280Z,6.20
2024-01-16T03:40:39.450Z,6.00
2024-01-16T03:43:07.684Z,6.40
2024-01-16T03:45:35.860Z,6.30
2024-01-16T03:48:07.428Z,6.30
2024-01-16T03:50:45.205Z,6.30
2024-01-16T03:53:14.119Z,7.20
2024-01-16T03:55:42.735Z,6.70
2024-01-16T03:58:13.467Z,6.80
2024-01-16T04:00:42.268Z,6.40
2024-01-16T04:03:10.502Z,7.00
2024-01-16T04:05:38.721Z,6.20
2024-01-16T04:08:16.801Z,6.10
2024-01-16T04:10:51.596Z,6.30
2024-01-16T04:13:48.184Z,5.80
2024-01-16T04:16:16.814Z,6.50
2024-01-16T04:18:52.598Z,6.50
2024-01-16T04:21:21.060Z,6.60
2024-01-16T04:24:07.263Z,6.70
2024-01-16T04:26:39.081Z,7.00
2024-01-16T04:29:07.338Z,7.30
2024-01-16T04:31:44.195Z,8.10
2024-01-16T04:34:12.735Z,7.40
2024-01-16T04:36:42.951Z,7.60
2024-01-16T04:39:13.212Z,7.30
2024-01-16T04:41:41.303Z,7.10
2024-01-16T04:44:09.430Z,7.90
2024-01-16T04:46:37.556Z,7.40
2024-01-16T04:49:05.652Z,8.60
2024-01-16T04:51:33.754Z,7.70
2024-01-16T04:54:19.622Z,7.50
2024-01-16T04:56:52.273Z,7.20
2024-01-16T04:59:32.504Z,6.50
2024-01-16T05:02:10.445Z,6.40
2024-01-16T05:04:51.608Z,6.40
2024-01-16T05:07:30.119Z,6.90
2024-01-16T05:09:59.313Z,6.30
2024-01-16T05:12:27.354Z,6.30
2024-01-16T05:14:55.475Z,6.70
2024-01-16T05:17:23.965Z,6.70
2024-01-16T05:19:52.234Z,6.80
2024-01-16T05:22:20.496Z,6.30
2024-01-16T05:24:48.577Z,6.60
2024-01-16T05:27:16.673Z,6.70
2024-01-16T05:29:45.076Z,5.90
2024-01-16T05:32:15.152Z,7.20
2024-01-16T05:34:43.249Z,6.70
2024-01-16T05:37:11.918Z,7.10
2024-01-16T05:39:40.119Z,6.40
2024-01-16T05:42:08.348Z,7.50
2024-01-16T05:44:36.546Z,6.80
2024-01-16T05:47:05.221Z,6.60
2024-01-16T05:49:33.507Z,7.20
2024-01-16T05:52:01.797Z,7.50
2024-01-16T05:54:30.218Z,7.60
2024-01-16T05:56:58.515Z,7.30
2024-01-16T05:59:26.774Z,6.80
2024-01-16T06:01:54.951Z,7.50
2024-01-16T06:04:23.077Z,7.60
2024-01-16T06:06:51.392Z,7.10
2024-01-16T06:09:19.766Z,8.00
2024-01-16T06:11:49.320Z,8.20
2024-01-16T06:14:22.893Z,6.40
2024-01-16T06:19:20.355Z,7.70
2024-01-16T06:21:48.607Z,6.80
2024-01-16T06:24:16.949Z,7.30
2024-01-16T06:26:45.180Z,6.80
2024-01-16T06:29:21.512Z,7.10
2024-01-16T06:31:56.413Z,7.50
2024-01-16T06:34:25.389Z,6.40
2024-01-16T06:36:53.534Z,6.40
2024-01-16T06:39:21.498Z,6.50
2024-01-16T06:41:50.456Z,6.20
2024-01-16T06:44:20.173Z,6.10
2024-01-16T06:46:48.262Z,5.80
2024-01-16T06:49:16.496Z,6.00
2024-01-16T06:51:45.075Z,5.10
2024-01-16T06:54:13.271Z,5.80
2024-01-16T06:56:41.673Z,5.90
2024-01-16T06:59:12.213Z,5.60
2024-01-16T07:01:40.781Z,6.60
2024-01-16T07:04:09.265Z,6.70
2024-01-16T07:06:37.847Z,6.30
2024-01-16T07:09:06.495Z,5.90
2024-01-16T07:11:35.042Z,6.50
2024-01-16T07:14:04.464Z,6.40
2024-01-16T07:16:33.690Z,6.70
2024-01-16T07:19:03.595Z,6.20
2024-01-16T07:21:32.188Z,7.20
2024-01-16T07:24:00.269Z,7.00
2024-01-16T07:26:30.850Z,6.30
2024-01-16T07:28:59.067Z,6.00
2024-01-16T07:31:27.425Z,6.00
2024-01-16T07:33:55.710Z,6.30
2024-01-16T07:36:24.234Z,6.10
2024-01-16T07:38:55.428Z,4.90
2024-01-16T07:41:23.706Z,4.50
2024-01-16T07:43:51.745Z,4.50
2024-01-16T07:46:19.853Z,5.00
2024-01-16T07:48:48.387Z,4.90
2024-01-16T07:51:17.398Z,4.80
2024-01-16T07:53:45.646Z,4.70
2024-01-16T07:56:13.838Z,4.70
2024-01-16T07:58:43.062Z,5.00
2024-01-16T08:01:11.425Z,4.70
2024-01-16T08:03:40.026Z,4.40
2024-01-16T08:06:08.347Z,4.40
2024-01-16T08:08:36.849Z,4.50
2024-01-16T08:11:05.085Z,4.30
2024-01-16T08:13:33.027Z,4.30
2024-01-16T08:16:02.468Z,4.40
2024-01-16T08:18:31.021Z,4.30
2024-01-16T08:20:59.378Z,4.10
2024-01-16T08:23:27.575Z,4.30
2024-01-16T08:25:56.111Z,4.70
2024-01-16T08:28:27.303Z,4.00
2024-01-16T08:30:55.292Z,5.00
2024-01-16T08:33:31.099Z,4.80
2024-01-16T08:36:05.717Z,5.00
2024-01-16T08:38:33.884Z,5.40
2024-01-16T08:41:01.989Z,5.00
2024-01-16T08:43:30.032Z,4.90
2024-01-16T08:45:58.105Z,4.20
2024-01-16T08:48:26.989Z,4.70
2024-01-16T08:50:55.563Z,4.80
2024-01-16T08:53:24.821Z,5.00
2024-01-16T08:55:53.067Z,5.10
2024-01-16T08:58:21.131Z,3.70
2024-01-16T09:00:49.287Z,3.20
2024-01-16T09:03:19.235Z,3.20
2024-01-16T09:05:47.801Z,3.50
2024-01-16T09:08:15.970Z,2.90
2024-01-16T09:10:44.347Z,3.40
2024-01-16T09:13:14.242Z,3.10
2024-01-16T09:15:42.478Z,3.00
2024-01-16T09:18:10.666Z,3.30
2024-01-16T09:20:38.846Z,3.50
2024-01-16T09:23:07.072Z,3.10
2024-01-16T09:25:36.090Z,3.10
2024-01-16T09:28:04.405Z,3.70
2024-01-16T09:30:32.629Z,3.20
2024-01-16T09:33:00.723Z,3.40
2024-01-16T09:35:29.509Z,3.30
2024-01-16T09:37:57.631Z,3.20
2024-01-16T09:40:26.100Z,3.20
2024-01-16T09:42:54.506Z,3.20
2024-01-16T09:45:23.166Z,3.30
2024-01-16T09:47:53.730Z,3.40
2024-01-16T09:50:23.952Z,3.20
2024-01-16T09:52:52.266Z,3.30
2024-01-16T09:55:20.583Z,3.40
2024-01-16T09:57:53.543Z,3.40
2024-01-16T10:00:22.778Z,3.20
2024-01-16T10:02:51.783Z,3.20
2024-01-16T10:05:20.082Z,3.40
2024-01-16T10:07:49.437Z,3.20
2024-01-16T10:10:24.246Z,2.90
2024-01-16T10:12:56.953Z,3.20
2024-01-16T10:15:25.502Z,3.00
2024-01-16T10:17:54.018Z,2.90
2024-01-16T10:20:34.307Z,2.80
2024-01-16T10:23:04.812Z,2.90
2024-01-16T10:25:33.277Z,2.60
2024-01-16T10:28:06.367Z,3.10
2024-01-16T10:30:34.964Z,3.00
2024-01-16T10:33:23.773Z,3.70
2024-01-16T10:35:51.959Z,3.80
2024-01-16T10:38:27.228Z,3.50
2024-01-16T10:41:19.205Z,4.60
2024-01-16T10:43:47.329Z,3.70
2024-01-16T10:46:18.818Z,3.60
2024-01-16T10:49:04.174Z,2.90
2024-01-16T10:51:33.671Z,3.30
2024-01-16T10:54:09.554Z,3.00
2024-01-16T10:56:38.183Z,2.70
2024-01-16T10:59:26.181Z,2.70
2024-01-16T11:01:57.475Z,2.90
2024-01-16T11:04:26.101Z,2.90
2024-01-16T11:06:55.890Z,3.00
2024-01-16T11:09:25.027Z,2.90
2024-01-16T11:11:55.731Z,2.60
2024-01-16T11:14:24.680Z,2.70
2024-01-16T11:16:54.114Z,2.90
2024-01-16T11:19:37.926Z,2.70
2024-01-16T11:22:11.729Z,3.20
2024-01-16T11:24:41.265Z,2.70
2024-01-16T11:27:09.594Z,2.90
2024-01-16T11:29:38.421Z,3.00
2024-01-16T11:32:13.949Z,3.00
2024-01-16T11:34:53.556Z,2.90
2024-01-16T11:37:33.968Z,2.70
2024-01-16T11:40:27.196Z,2.80
2024-01-16T11:42:57.364Z,3.00
2024-01-16T11:45:29.175Z,3.00
2024-01-16T11:48:13.617Z,3.00
2024-01-16T11:50:43.752Z,3.10
2024-01-16T11:53:12.132Z,3.30
2024-01-16T11:56:13.360Z,2.90
2024-01-16T11:59:04.090Z,3.00
2024-01-16T12:01:33.482Z,2.50
2024-01-16T12:04:08.055Z,2.80
2024-01-16T12:06:37.602Z,3.20
2024-01-16T12:09:27.638Z,3.30
2024-01-16T12:12:02.423Z,3.10
2024-01-16T12:14:31.528Z,3.00
2024-01-16T12:17:13.350Z,2.60
2024-01-16T12:19:43.945Z,2.80
2024-01-16T12:22:15.291Z,2.70
2024-01-16T12:24:43.836Z,3.00
2024-01-16T12:27:12.888Z,3.00
2024-01-16T12:29:44.003Z,3.30
2024-01-16T12:32:13.415Z,2.90
2024-01-16T12:34:47.339Z,2.90
2024-01-16T12:39:44.726Z,3.20
2024-01-16T12:42:13.769Z,2.80
2024-01-16T12:44:42.030Z,2.70
2024-01-16T12:47:10.248Z,3.10
2024-01-16T12:49:44.469Z,2.80
2024-01-16T12:52:23.738Z,3.00
2024-01-16T12:55:06.079Z,3.00
2024-01-16T12:57:34.221Z,3.50
2024-01-16T13:00:05.829Z,3.30
2024-01-16T13:02:35.144Z,3.20
2024-01-16T13:05:05.228Z,3.40
2024-01-16T13:07:34.587Z,3.30
2024-01-16T13:10:10.190Z,3.90
2024-01-16T13:12:38.972Z,3.80
2024-01-16T13:15:07.512Z,3.40
2024-01-16T13:17:36.513Z,3.50
2024-01-16T13:20:08.818Z,3.50
2024-01-16T13:22:44.537Z,3.40
2024-01-16T13:25:16.011Z,3.20
2024-01-16T13:27:44.077Z,2.90
2024-01-16T13:30:13.445Z,3.30
2024-01-16T13:32:42.041Z,3.00
2024-01-16T13:35:13.143Z,3.00
2024-01-16T13:37:42.383Z,3.40
2024-01-16T13:40:15.297Z,3.80
2024-01-16T13:42:43.745Z,3.80
2024-01-16T13:45:14.742Z,3.30
2024-01-16T13:47:43.503Z,3.50
2024-01-16T13:50:11.779Z,3.40
2024-01-16T13:52:41.750Z,3.40
2024-01-16T13:55:10.497Z,3.30
2024-01-16T13:57:39.682Z,3.50
2024-01-16T14:00:14.743Z,3.20
2024-01-16T14:02:45.000Z,3.90
2024-01-16T14:05:16.964Z,3.70
2024-01-16T14:07:49.140Z,4.00
2024-01-16T14:10:18.759Z,3.90
2024-01-16T14:12:49.980Z,3.70
2024-01-16T14:15:21.094Z,3.50
2024-01-16T14:17:54.105Z,3.50
2024-01-16T14:20:27.699Z,3.60
2024-01-16T14:22:58.896Z,3.40
2024-01-16T14:25:27.469Z,3.90
2024-01-16T14:28:05.119Z,3.90
2024-01-16T14:30:36.950Z,3.80
2024-01-16T14:33:08.170Z,3.60
2024-01-16T14:35:36.603Z,3.60
2024-01-16T14:38:04.828Z,3.50
2024-01-16T14:40:33.134Z,4.70
2024-01-16T14:43:06.949Z,3.70
2024-01-16T14:45:34.994Z,4.50
2024-01-16T14:48:05.709Z,4.10
2024-01-16T14:50:34.298Z,3.90
2024-01-16T14:53:04.252Z,3.80
2024-01-16T14:55:32.576Z,4.60
2024-01-16T14:58:02.085Z,4.30
2024-01-16T15:00:31.918Z,4.20
2024-01-16T15:03:00.678Z,4.30
2024-01-16T15:05:30.666Z,4.50
2024-01-16T15:07:59.347Z,4.80
2024-01-16T15:10:27.600Z,4.80
2024-01-16T15:12:55.751Z,6.20
2024-01-16T15:15:24.433Z,6.00
2024-01-16T15:17:53.373Z,5.90
2024-01-16T15:20:21.921Z,6.30
2024-01-16T15:22:53.849Z,6.30
2024-01-16T15:25:24.008Z,5.70
2024-01-16T15:27:56.516Z,5.70
2024-01-16T15:30:29.146Z,5.60
2024-01-16T15:32:57.749Z,6.10
2024-01-16T15:35:26.610Z,5.40
2024-01-16T15:37:55.794Z,5.00
2024-01-16T15:40:24.543Z,5.40
2024-01-16T15:42:52.785Z,5.80
2024-01-16T15:47:50.087Z,4.80
2024-01-16T15:50:19.103Z,4.50
2024-01-16T15:52:47.521Z,4.30
2024-01-16T15:55:15.746Z,3.40
2024-01-16T15:57:43.988Z,3.70
2024-01-16T16:00:12.445Z,4.00
2024-01-16T16:02:40.900Z,3.50
2024-01-16T16:05:09.595Z,3.50
2024-01-16T16:07:38.607Z,4.20
2024-01-16T16:10:07.813Z,4.90
2024-01-16T16:12:36.544Z,5.10
2024-01-16T16:15:05.635Z,3.90
2024-01-16T16:17:33.723Z,3.60
2024-01-16T16:20:01.911Z,4.10
2024-01-16T16:22:30.163Z,3.60
2024-01-16T16:24:58.683Z,4.20
2024-01-16T16:27:28.116Z,4.00
2024-01-16T16:29:57.773Z,3.50
2024-01-16T16:32:26.442Z,3.80
2024-01-16T16:34:54.841Z,3.70
2024-01-16T16:37:24.166Z,4.00
2024-01-16T16:39:52.537Z,3.80
2024-01-16T16:42:21.368Z,4.40
2024-01-16T16:44:49.811Z,3.90
2024-01-16T16:47:18.719Z,3.60
2024-01-16T16:49:47.089Z,3.70
2024-01-16T16:52:15.269Z,3.50
2024-01-16T16:54:47.481Z,3.80
2024-01-16T16:57:15.650Z,4.00
2024-01-16T16:59:46.698Z,3.90
2024-01-16T17:02:15.806Z,3.70
2024-01-16T17:04:46.995Z,4.70
2024-01-16T17:07:16.332Z,4.30
2024-01-16T17:09:45.954Z,4.60
2024-01-16T17:12:14.369Z,4.40
2024-01-16T17:14:43.307Z,6.70
2024-01-16T17:17:12.499Z,6.60
2024-01-16T17:19:41.849Z,5.20
2024-01-16T17:22:10.249Z,5.70
2024-01-16T17:24:38.385Z,5.50
2024-01-16T17:27:07.170Z,5.90
2024-01-16T17:29:36.652Z,4.70
2024-01-16T17:32:05.274Z,8.30
2024-01-16T17:34:33.554Z,14.50
2024-01-16T17:37:01.679Z,9.10
2024-01-16T17:39:29.904Z,9.10
2024-01-16T17:41:58.078Z,7.30
2024-01-16T17:44:26.452Z,7.20
2024-01-16T17:46:54.522Z,6.80
2024-01-16T17:49:25.605Z,8.00
2024-01-16T17:54:25.303Z,7.70
2024-01-16T17:56:55.947Z,8.70
2024-01-16T18:02:28.863Z,14.30
2024-01-16T18:04:57.132Z,11.90
2024-01-16T18:07:25.186Z,13.40
2024-01-16T18:09:53.797Z,16.40
2024-01-16T18:12:25.261Z,13.20
2024-01-16T18:14:53.420Z,17.30
2024-01-16T18:17:23.098Z,14.70
2024-01-16T18:19:54.587Z,22.00
2024-01-16T18:22:23.338Z,23.20
2024-01-16T18:24:54.757Z,26.90
2024-01-16T18:27:23.319Z,18.80
2024-01-16T18:29:51.452Z,17.90
2024-01-16T18:32:19.554Z,16.90
2024-01-16T18:34:47.953Z,18.10
2024-01-16T18:37:16.357Z,17.20
2024-01-16T18:39:44.442Z,17.70
2024-01-16T18:42:12.478Z,18.80
2024-01-16T18:44:41.106Z,17.40
2024-01-16T18:47:09.894Z,20.10
2024-01-16T18:49:38.698Z,25.20
2024-01-16T18:52:07.169Z,27.90
2024-01-16T18:54:38.139Z,29.10
2024-01-16T18:57:15.087Z,26.60
2024-01-16T18:59:44.908Z,25.40
2024-01-16T19:02:18.039Z,21.10
2024-01-16T19:04:49.653Z,16.10
2024-01-16T19:07:18.892Z,16.40
2024-01-16T19:09:46.910Z,22.70
2024-01-16T19:12:15.200Z,36.80
2024-01-16T19:14:46.280Z,42.70
2024-01-16T19:17:17.004Z,36.30
2024-01-16T19:19:45.186Z,31.80
2024-01-16T19:22:13.171Z,32.90
2024-01-16T19:24:41.283Z,34.10
2024-01-16T19:27:09.413Z,30.90
2024-01-16T19:29:37.556Z,30.60
2024-01-16T19:32:06.807Z,35.60
2024-01-16T19:34:35.913Z,31.80
2024-01-16T19:37:05.031Z,31.90
2024-01-16T19:39:34.292Z,22.40
2024-01-16T19:42:02.801Z,21.70
2024-01-16T19:44:31.273Z,21.60
2024-01-16T19:46:59.415Z,22.70
2024-01-16T19:49:27.966Z,23.40
2024-01-16T19:51:56.384Z,22.60
2024-01-16T19:54:24.474Z,22.40
2024-01-16T19:56:52.807Z,22.10
2024-01-16T19:59:21.113Z,19.40
2024-01-16T20:01:50.850Z,17.70
2024-01-16T20:04:19.605Z,19.10
2024-01-16T20:06:47.839Z,17.30
2024-01-16T20:09:17.580Z,17.00
2024-01-16T20:11:49.085Z,16.60
2024-01-16T20:14:17.720Z,16.10
2024-01-16T20:16:45.882Z,16.70
2024-01-16T20:19:14.605Z,19.40
2024-01-16T20:21:45.565Z,18.90
2024-01-16T20:24:16.037Z,23.40
2024-01-16T20:26:44.759Z,21.70
2024-01-16T20:29:13.870Z,35.90
2024-01-16T20:31:43.344Z,42.40
2024-01-16T20:34:13.186Z,43.70
2024-01-16T20:36:42.174Z,33.00
2024-01-16T20:39:10.891Z,29.90
2024-01-16T20:41:39.185Z,23.90
2024-01-16T20:44:19.651Z,24.20
2024-01-16T20:46:48.748Z,18.80
2024-01-16T20:49:18.910Z,19.20
2024-01-16T20:51:47.476Z,16.50
2024-01-16T20:54:17.059Z,13.90
2024-01-16T20:56:47.000Z,19.80
2024-01-16T20:59:15.031Z,18.30
2024-01-16T21:01:43.332Z,20.60
2024-01-16T21:04:11.415Z,32.10
2024-01-16T21:06:39.724Z,34.40
2024-01-16T21:09:08.118Z,43.20
2024-01-16T21:11:36.572Z,36.30
2024-01-16T21:14:05.233Z,26.20
2024-01-16T21:16:33.479Z,23.30
2024-01-16T21:19:06.876Z,19.00
2024-01-16T21:21:35.130Z,16.50
2024-01-16T21:24:05.771Z,15.30
2024-01-16T21:26:33.751Z,13.90
2024-01-16T21:29:01.840Z,15.50
2024-01-16T21:31:29.988Z,15.90
2024-01-16T21:33:59.708Z,18.00
2024-01-16T21:36:27.940Z,20.50
2024-01-16T21:38:56.181Z,18.40
2024-01-16T21:41:24.277Z,20.20
2024-01-16T21:43:52.670Z,16.20
2024-01-16T21:46:21.003Z,16.70
2024-01-16T21:48:49.414Z,15.00
2024-01-16T21:51:18.234Z,15.70
2024-01-16T21:53:46.352Z,16.00
2024-01-16T21:56:14.638Z,15.80
2024-01-16T21:58:42.773Z,14.00
2024-01-16T22:01:13.844Z,14.00
2024-01-16T22:03:42.141Z,14.60
2024-01-16T22:06:10.374Z,16.80
2024-01-16T22:08:38.766Z,16.60
2024-01-16T22:11:07.004Z,16.80
2024-01-16T22:13:35.227Z,16.60
2024-01-16T22:16:04.832Z,15.20
2024-01-16T22:18:33.280Z,16.90
2024-01-16T22:21:03.171Z,18.50
2024-01-16T22:23:31.780Z,14.90
2024-01-16T22:26:01.551Z,14.40
2024-01-16T22:28:29.701Z,14.30
2024-01-16T22:30:58.204Z,15.10
2024-01-16T22:33:28.447Z,15.40
2024-01-16T22:35:57.063Z,14.60
2024-01-16T22:38:25.311Z,14.20
2024-01-16T22:40:53.550Z,15.10
2024-01-16T22:43:22.911Z,14.60
2024-01-16T22:45:52.854Z,15.10
2024-01-16T22:48:21.362Z,14.60
2024-01-16T22:50:52.205Z,15.10
2024-01-16T22:53:20.633Z,15.30
2024-01-16T22:55:50.025Z,17.30
2024-01-16T22:58:18.538Z,17.10
2024-01-16T23:00:53.158Z,16.40
2024-01-16T23:03:22.020Z,17.20
2024-01-16T23:05:50.198Z,17.90
2024-01-16T23:08:19.970Z,16.80
2024-01-16T23:10:48.494Z,17.30
2024-01-16T23:13:17.823Z,17.90
2024-01-16T23:15:46.766Z,18.60
2024-01-16T23:18:15.244Z,18.50
2024-01-16T23:20:43.437Z,18.30
2024-01-16T23:23:13.788Z,18.10
2024-01-16T23:25:46.693Z,19.50
2024-01-16T23:28:14.835Z,18.20
2024-01-16T23:30:42.893Z,18.90
2024-01-16T23:33:11.014Z,18.00
2024-01-16T23:35:39.225Z,18.20
2024-01-16T23:38:07.412Z,17.10
2024-01-16T23:40:35.343Z,15.90
2024-01-16T23:43:03.499Z,17.00
2024-01-16T23:45:33.940Z,16.60
2024-01-16T23:48:03.042Z,16.70
2024-01-16T23:50:31.532Z,16.20
2024-01-16T23:53:00.537Z,15.50
2024-01-16T23:55:29.129Z,14.20
2024-01-16T23:57:57.751Z,13.40
